createdAt,value
2022-12-01T00:01:45.888Z,100266.63
2022-12-01T00:04:14.647Z,100271.41
2022-12-01T00:06:44.120Z,100266.31
2022-12-01T00:09:31.320Z,100271.34
2022-12-01T00:12:00.783Z,100272.31
2022-12-01T00:14:29.483Z,100287.50
2022-12-01T00:16:59.100Z,100282.59
2022-12-01T00:19:29.120Z,100280.94
2022-12-01T00:21:57.942Z,100278.13
2022-12-01T00:24:27.434Z,100279.28
2022-12-01T00:26:56.133Z,100281.06
2022-12-01T00:29:25.694Z,100283.06
2022-12-01T00:31:54.440Z,100280.41
2022-12-01T00:34:28.253Z,100283.31
2022-12-01T00:36:57.059Z,100293.91
2022-12-01T00:39:25.777Z,100293.88
2022-12-01T00:41:53.577Z,100286.78
2022-12-01T00:44:23.027Z,100285.22
2022-12-01T00:46:50.758Z,100293.91
2022-12-01T00:49:19.646Z,100300.47
2022-12-01T00:51:48.321Z,100301.31
2022-12-01T00:54:16.979Z,100302.91
2022-12-01T00:56:45.727Z,100306.28
2022-12-01T00:59:14.434Z,100297.81
2022-12-01T01:01:43.305Z,100301.50
2022-12-01T01:04:12.331Z,100299.81
2022-12-01T01:06:43.512Z,100305.06
2022-12-01T01:09:13.946Z,100294.53
2022-12-01T01:11:44.064Z,100300.72
2022-12-01T01:14:15.485Z,100294.56
2022-12-01T01:16:45.121Z,100299.78
2022-12-01T01:19:14.677Z,100301.69
2022-12-01T01:21:43.742Z,100291.06
2022-12-01T01:24:13.186Z,100293.72
2022-12-01T01:26:42.742Z,100296.25
2022-12-01T01:29:11.523Z,100293.00
2022-12-01T01:31:40.315Z,100289.50
2022-12-01T01:34:09.017Z,100293.66
2022-12-01T01:36:37.704Z,100289.16
2022-12-01T01:39:06.390Z,100290.03
2022-12-01T01:41:34.524Z,100264.63
2022-12-01T01:44:04.077Z,100280.50
2022-12-01T01:46:35.441Z,100281.66
2022-12-01T01:49:14.010Z,100272.09
2022-12-01T01:51:52.914Z,100275.59
2022-12-01T01:54:38.102Z,100273.66
2022-12-01T01:57:11.736Z,100268.50
2022-12-01T01:59:51.735Z,100263.03
2022-12-01T02:02:20.543Z,100272.84
2022-12-01T02:04:58.865Z,100273.00
2022-12-01T02:07:28.519Z,100273.97
2022-12-01T02:09:57.531Z,100276.69
2022-12-01T02:12:41.808Z,100276.56
2022-12-01T02:15:34.071Z,100274.16
2022-12-01T02:18:37.767Z,100271.56
2022-12-01T02:22:20.387Z,100277.59
2022-12-01T02:25:29.800Z,100272.09
2022-12-01T02:28:53.636Z,100273.94
2022-12-01T02:32:43.650Z,100272.16
2022-12-01T02:35:35.822Z,100267.97
2022-12-01T02:38:39.390Z,100268.00
2022-12-01T02:41:25.974Z,100264.59
2022-12-01T02:44:27.787Z,100262.59
2022-12-01T02:47:12.381Z,100254.53
2022-12-01T02:49:49.819Z,100251.13
2022-12-01T02:52:20.882Z,100251.25
2022-12-01T02:54:51.165Z,100258.41
2022-12-01T02:57:21.030Z,100263.88
2022-12-01T02:59:56.180Z,100267.41
2022-12-01T03:03:04.516Z,100270.03
2022-12-01T03:06:05.794Z,100258.50
2022-12-01T03:09:37.938Z,100256.63
2022-12-01T03:12:24.991Z,100259.91
2022-12-01T03:16:16.900Z,100259.06
2022-12-01T03:18:57.781Z,100262.53
2022-12-01T03:21:42.138Z,100256.69
2022-12-01T03:24:20.634Z,100260.41
2022-12-01T03:26:57.284Z,100258.78
2022-12-01T03:29:43.425Z,100258.63
2022-12-01T03:32:42.563Z,100251.44
2022-12-01T03:35:43.215Z,100256.72
2022-12-01T03:38:19.396Z,100248.94
2022-12-01T03:40:52.954Z,100243.97
2022-12-01T03:43:30.692Z,100237.84
2022-12-01T03:46:44.793Z,100232.31
2022-12-01T03:49:17.903Z,100228.66
2022-12-01T03:52:21.745Z,100229.59
2022-12-01T03:55:25.304Z,100226.38
2022-12-01T03:58:01.948Z,100229.06
2022-12-01T04:00:31.970Z,100227.38
2022-12-01T04:03:04.591Z,100233.47
2022-12-01T04:05:35.583Z,100221.31
2022-12-01T04:08:05.413Z,100220.31
2022-12-01T04:10:35.095Z,100225.66
2022-12-01T04:13:03.964Z,100220.38
2022-12-01T04:15:32.660Z,100233.63
2022-12-01T04:18:02.134Z,100235.44
2022-12-01T04:20:29.880Z,100223.03
2022-12-01T04:22:58.576Z,100225.69
2022-12-01T04:25:27.328Z,100225.78
2022-12-01T04:27:55.995Z,100224.88
2022-12-01T04:30:24.690Z,100221.31
2022-12-01T04:32:52.450Z,100228.31
2022-12-01T04:35:21.911Z,100225.75
2022-12-01T04:37:50.623Z,100219.66
2022-12-01T04:40:19.535Z,100227.50
2022-12-01T04:42:48.185Z,100230.97
2022-12-01T04:45:16.885Z,100236.28
2022-12-01T04:47:46.378Z,100231.94
2022-12-01T04:50:15.203Z,100235.41
2022-12-01T04:52:42.999Z,100239.00
2022-12-01T04:55:12.540Z,100239.78
2022-12-01T04:57:42.454Z,100249.41
2022-12-01T05:00:13.505Z,100257.34
2022-12-01T05:02:43.788Z,100259.19
2022-12-01T05:05:14.332Z,100257.44
2022-12-01T05:07:44.603Z,100249.53
2022-12-01T05:10:14.597Z,100255.63
2022-12-01T05:12:44.442Z,100260.91
2022-12-01T05:15:14.626Z,100262.66
2022-12-01T05:17:44.735Z,100262.59
2022-12-01T05:20:44.121Z,100267.09
2022-12-01T05:23:20.002Z,100269.88
2022-12-01T05:25:49.564Z,100268.06
2022-12-01T05:28:20.227Z,100274.94
2022-12-01T05:30:51.226Z,100273.28
2022-12-01T05:33:22.976Z,100268.09
2022-12-01T05:35:52.807Z,100271.63
2022-12-01T05:38:22.610Z,100265.44
2022-12-01T05:40:56.572Z,100262.69
2022-12-01T05:43:29.023Z,100272.50
2022-12-01T05:45:59.074Z,100282.16
2022-12-01T05:48:28.665Z,100265.50
2022-12-01T05:50:58.120Z,100265.53
2022-12-01T05:53:25.956Z,100271.69
2022-12-01T05:55:56.120Z,100270.91
2022-12-01T05:58:23.910Z,100271.72
2022-12-01T06:00:51.784Z,100272.66
2022-12-01T06:03:21.288Z,100266.50
2022-12-01T06:05:51.470Z,100274.41
2022-12-01T06:08:19.808Z,100271.72
2022-12-01T06:10:48.579Z,100270.00
2022-12-01T06:13:17.354Z,100280.50
2022-12-01T06:15:46.065Z,100267.16
2022-12-01T06:18:15.561Z,100268.06
2022-12-01T06:20:45.155Z,100269.00
2022-12-01T06:23:15.102Z,100272.44
2022-12-01T06:25:44.827Z,100260.16
2022-12-01T06:28:14.749Z,100269.75
2022-12-01T06:30:44.313Z,100270.59
2022-12-01T06:33:13.059Z,100273.22
2022-12-01T06:35:42.739Z,100277.50
2022-12-01T06:38:12.491Z,100277.63
2022-12-01T06:40:44.359Z,100273.94
2022-12-01T06:43:14.137Z,100270.56
2022-12-01T06:45:41.955Z,100272.34
2022-12-01T06:48:12.782Z,100272.31
2022-12-01T06:50:42.718Z,100268.69
2022-12-01T06:53:12.255Z,100276.59
2022-12-01T06:55:40.386Z,100278.25
2022-12-01T06:58:09.271Z,100280.97
2022-12-01T07:00:38.923Z,100275.50
2022-12-01T07:03:08.447Z,100282.59
2022-12-01T07:05:36.573Z,100282.50
2022-12-01T07:08:06.999Z,100279.72
2022-12-01T07:10:36.709Z,100282.38
2022-12-01T07:13:04.983Z,100291.16
2022-12-01T07:15:34.416Z,100275.22
2022-12-01T07:18:03.980Z,100277.91
2022-12-01T07:20:32.692Z,100282.94
2022-12-01T07:23:00.417Z,100286.50
2022-12-01T07:25:29.999Z,100290.56
2022-12-01T07:27:59.618Z,100277.63
2022-12-01T07:30:29.388Z,100281.22
2022-12-01T07:32:59.861Z,100275.97
2022-12-01T07:35:29.328Z,100279.09
2022-12-01T07:37:58.827Z,100286.03
2022-12-01T07:40:27.508Z,100286.13
2022-12-01T07:42:56.226Z,100286.03
2022-12-01T07:45:25.689Z,100286.13
2022-12-01T07:47:55.230Z,100285.91
2022-12-01T07:50:24.750Z,100291.72
2022-12-01T07:52:54.307Z,100289.81
2022-12-01T07:55:23.943Z,100292.38
2022-12-01T07:57:53.769Z,100284.19
2022-12-01T08:00:22.842Z,100295.25
2022-12-01T08:02:52.386Z,100293.16
2022-12-01T08:05:22.061Z,100292.47
2022-12-01T08:07:54.290Z,100291.22
2022-12-01T08:10:23.836Z,100299.59
2022-12-01T08:12:53.354Z,100299.53
2022-12-01T08:15:22.968Z,100306.19
2022-12-01T08:17:52.514Z,100304.44
2022-12-01T08:20:24.084Z,100302.53
2022-12-01T08:22:52.039Z,100310.50
2022-12-01T08:25:21.618Z,100298.78
2022-12-01T08:27:51.140Z,100304.88
2022-12-01T08:30:20.809Z,100300.31
2022-12-01T08:32:53.703Z,100300.06
2022-12-01T08:35:24.061Z,100298.63
2022-12-01T08:37:54.575Z,100304.59
2022-12-01T08:40:24.158Z,100300.00
2022-12-01T08:42:53.847Z,100296.56
2022-12-01T08:45:23.399Z,100292.81
2022-12-01T08:47:59.029Z,100291.66
2022-12-01T08:50:29.366Z,100299.00
2022-12-01T08:52:58.831Z,100285.28
2022-12-01T08:55:28.276Z,100291.53
2022-12-01T08:57:56.973Z,100291.72
2022-12-01T09:00:25.727Z,100294.94
2022-12-01T09:02:54.478Z,100295.53
2022-12-01T09:05:23.911Z,100301.59
2022-12-01T09:08:12.567Z,100304.16
2022-12-01T09:10:42.046Z,100304.72
2022-12-01T09:13:11.057Z,100297.25
2022-12-01T09:15:39.725Z,100294.59
2022-12-01T09:18:09.264Z,100296.22
2022-12-01T09:20:38.685Z,100292.41
2022-12-01T09:23:07.302Z,100286.31
2022-12-01T09:25:36.905Z,100280.34
2022-12-01T09:28:05.872Z,100286.25
2022-12-01T09:30:36.618Z,100281.69
2022-12-01T09:33:06.100Z,100284.47
2022-12-01T09:35:35.540Z,100276.63
2022-12-01T09:38:04.789Z,100287.34
2022-12-01T09:40:43.251Z,100272.53
2022-12-01T09:43:37.892Z,100281.09
2022-12-01T09:46:22.651Z,100267.66
2022-12-01T09:48:57.460Z,100272.03
2022-12-01T09:51:29.863Z,100269.72
2022-12-01T09:54:02.219Z,100261.06
2022-12-01T09:56:46.921Z,100268.47
2022-12-01T09:59:36.084Z,100267.28
2022-12-01T10:02:50.578Z,100262.75
2022-12-01T10:05:25.530Z,100269.50
2022-12-01T10:08:08.487Z,100265.69
2022-12-01T10:10:51.430Z,100270.59
2022-12-01T10:13:29.665Z,100259.97
2022-12-01T10:16:18.526Z,100259.16
2022-12-01T10:19:35.002Z,100254.53
2022-12-01T10:22:47.829Z,100258.47
2022-12-01T10:25:27.108Z,100248.06
2022-12-01T10:28:38.611Z,100245.28
2022-12-01T10:32:00.308Z,100241.13
2022-12-01T10:34:37.024Z,100246.22
2022-12-01T10:37:13.933Z,100241.63
2022-12-01T10:39:59.408Z,100241.28
2022-12-01T10:42:48.533Z,100236.41
2022-12-01T10:45:27.621Z,100231.34
2022-12-01T10:48:23.603Z,100224.88
2022-12-01T10:51:17.412Z,100230.53
2022-12-01T10:53:50.370Z,100222.63
2022-12-01T10:56:21.754Z,100222.56
2022-12-01T10:59:23.672Z,100217.41
2022-12-01T11:04:37.207Z,100223.25
2022-12-01T11:07:05.897Z,100213.59
2022-12-01T11:09:35.462Z,100212.28
2022-12-01T11:12:06.174Z,100222.16
2022-12-01T11:14:47.954Z,100217.84
2022-12-01T11:17:27.644Z,100218.00
2022-12-01T11:19:57.312Z,100214.78
2022-12-01T11:22:31.390Z,100214.25
2022-12-01T11:25:05.697Z,100211.00
2022-12-01T11:27:54.901Z,100210.28
2022-12-01T11:30:29.485Z,100205.56
2022-12-01T11:33:02.871Z,100208.09
2022-12-01T11:35:37.036Z,100211.56
2022-12-01T11:38:29.202Z,100214.94
2022-12-01T11:40:59.948Z,100210.41
2022-12-01T11:43:36.787Z,100223.34
2022-12-01T11:46:10.066Z,100226.78
2022-12-01T11:48:39.795Z,100224.78
2022-12-01T11:51:37.198Z,100227.88
2022-12-01T11:54:27.576Z,100218.59
2022-12-01T11:58:12.577Z,100211.22
2022-12-01T11:59:46.626Z,100208.75
2022-12-01T12:03:07.111Z,100209.63
2022-12-01T12:06:41.028Z,100204.84
2022-12-01T12:09:26.861Z,100213.44
2022-12-01T12:12:26.856Z,100210.91
2022-12-01T12:15:34.459Z,100218.91
2022-12-01T12:19:00.665Z,100206.16
2022-12-01T12:21:53.468Z,100199.25
2022-12-01T12:24:54.339Z,100198.19
2022-12-01T12:28:06.843Z,100198.69
2022-12-01T12:31:02.864Z,100195.56
2022-12-01T12:34:25.946Z,100201.22
2022-12-01T12:37:05.318Z,100195.69
2022-12-01T12:40:21.871Z,100196.28
2022-12-01T12:42:59.342Z,100190.81
2022-12-01T12:46:14.216Z,100194.00
2022-12-01T12:49:20.779Z,100193.16
2022-12-01T12:52:08.915Z,100192.06
2022-12-01T12:55:00.636Z,100192.56
2022-12-01T12:57:52.509Z,100195.00
2022-12-01T13:00:29.563Z,100197.03
2022-12-01T13:03:29.222Z,100183.75
2022-12-01T13:06:15.004Z,100179.69
2022-12-01T13:08:58.531Z,100181.66
2022-12-01T13:11:57.993Z,100192.56
2022-12-01T13:15:17.161Z,100190.91
2022-12-01T13:17:57.995Z,100187.00
2022-12-01T13:20:30.595Z,100181.22
2022-12-01T13:23:03.149Z,100177.56
2022-12-01T13:25:40.761Z,100194.53
2022-12-01T13:28:22.457Z,100179.53
2022-12-01T13:31:24.618Z,100188.50
2022-12-01T13:34:04.485Z,100182.94
2022-12-01T13:36:49.942Z,100191.44
2022-12-01T13:39:24.427Z,100185.47
2022-12-01T13:42:27.543Z,100183.50
2022-12-01T13:45:01.254Z,100176.13
2022-12-01T13:47:49.928Z,100173.84
2022-12-01T13:50:48.759Z,100176.88
2022-12-01T13:53:20.037Z,100179.59
2022-12-01T13:56:17.516Z,100182.72
2022-12-01T13:58:52.987Z,100186.03
2022-12-01T14:01:22.048Z,100183.41
2022-12-01T14:04:16.074Z,100179.72
2022-12-01T14:07:35.287Z,100185.91
2022-12-01T14:10:33.198Z,100182.00
2022-12-01T14:13:07.696Z,100178.38
2022-12-01T14:15:43.599Z,100188.25
2022-12-01T14:18:20.479Z,100178.19
2022-12-01T14:20:50.348Z,100182.16
2022-12-01T14:23:37.409Z,100180.28
2022-12-01T14:26:21.243Z,100179.47
2022-12-01T14:28:56.444Z,100181.31
2022-12-01T14:31:35.446Z,100176.19
2022-12-01T14:34:24.478Z,100184.22
2022-12-01T14:36:57.883Z,100186.19
2022-12-01T14:39:42.434Z,100185.13
2022-12-01T14:42:58.643Z,100188.94
2022-12-01T14:45:50.017Z,100182.78
2022-12-01T14:48:41.889Z,100177.16
2022-12-01T14:51:32.471Z,100180.38
2022-12-01T14:54:24.171Z,100185.88
2022-12-01T14:57:05.687Z,100178.78
2022-12-01T14:59:35.534Z,100176.31
2022-12-01T15:02:10.088Z,100177.25
2022-12-01T15:05:14.586Z,100183.50
2022-12-01T15:07:58.823Z,100179.91
2022-12-01T15:10:37.094Z,100181.16
2022-12-01T15:13:22.090Z,100178.69
2022-12-01T15:15:58.987Z,100181.66
2022-12-01T15:18:37.190Z,100173.06
2022-12-01T15:21:26.149Z,100171.84
2022-12-01T15:24:25.164Z,100174.28
2022-12-01T15:27:04.125Z,100180.91
2022-12-01T15:29:45.697Z,100186.28
2022-12-01T15:32:21.122Z,100185.81
2022-12-01T15:34:54.826Z,100178.00
2022-12-01T15:37:27.961Z,100178.97
2022-12-01T15:43:41.550Z,100179.31
2022-12-01T15:46:19.472Z,100170.16
2022-12-01T15:48:49.125Z,100181.03
2022-12-01T15:51:27.196Z,100173.25
2022-12-01T15:54:00.400Z,100177.75
2022-12-01T15:56:39.730Z,100185.06
2022-12-01T15:59:13.078Z,100182.75
2022-12-01T16:01:45.255Z,100186.59
2022-12-01T16:04:32.365Z,100183.22
2022-12-01T16:07:10.489Z,100187.50
2022-12-01T16:09:42.597Z,100185.53
2022-12-01T16:12:19.994Z,100186.38
2022-12-01T16:15:08.730Z,100183.97
2022-12-01T16:17:52.728Z,100185.72
2022-12-01T16:20:38.656Z,100185.38
2022-12-01T16:23:22.529Z,100182.00
2022-12-01T16:25:56.613Z,100183.41
2022-12-01T16:28:37.798Z,100185.91
2022-12-01T16:31:19.652Z,100191.06
2022-12-01T16:33:49.377Z,100190.97
2022-12-01T16:36:23.934Z,100198.38
2022-12-01T16:38:56.182Z,100193.06
2022-12-01T16:41:41.253Z,100198.28
2022-12-01T16:44:30.885Z,100200.06
2022-12-01T16:47:00.477Z,100197.25
2022-12-01T16:49:30.533Z,100191.50
2022-12-01T16:52:11.104Z,100194.34
2022-12-01T16:54:50.557Z,100184.06
2022-12-01T16:57:21.347Z,100193.72
2022-12-01T16:59:52.896Z,100179.25
2022-12-01T17:02:23.340Z,100186.97
2022-12-01T17:04:53.187Z,100197.09
2022-12-01T17:07:22.983Z,100190.25
2022-12-01T17:09:52.588Z,100186.84
2022-12-01T17:12:25.344Z,100197.78
2022-12-01T17:14:54.914Z,100189.22
2022-12-01T17:17:24.510Z,100193.53
2022-12-01T17:19:54.024Z,100196.06
2022-12-01T17:22:23.540Z,100193.72
2022-12-01T17:24:54.959Z,100191.19
2022-12-01T17:27:27.741Z,100191.19
2022-12-01T17:29:59.925Z,100200.13
2022-12-01T17:32:30.514Z,100202.88
2022-12-01T17:35:01.046Z,100207.31
2022-12-01T17:37:31.529Z,100200.47
2022-12-01T17:40:02.196Z,100196.78
2022-12-01T17:42:34.085Z,100195.75
2022-12-01T17:45:05.380Z,100203.84
2022-12-01T17:47:35.921Z,100204.78
2022-12-01T17:50:07.587Z,100200.31
2022-12-01T17:52:38.178Z,100204.78
2022-12-01T17:55:09.459Z,100199.75
2022-12-01T17:57:39.027Z,100202.38
2022-12-01T18:00:09.826Z,100196.59
2022-12-01T18:02:37.637Z,100206.56
2022-12-01T18:05:09.133Z,100204.38
2022-12-01T18:07:39.780Z,100209.75
2022-12-01T18:10:08.244Z,100195.75
2022-12-01T18:12:37.800Z,100206.22
2022-12-01T18:15:08.643Z,100199.00
2022-12-01T18:17:38.699Z,100197.97
2022-12-01T18:20:09.536Z,100204.84
2022-12-01T18:22:39.242Z,100207.81
2022-12-01T18:25:09.407Z,100193.53
2022-12-01T18:27:37.345Z,100197.34
2022-12-01T18:30:08.604Z,100200.19
2022-12-01T18:32:38.348Z,100209.25
2022-12-01T18:35:06.761Z,100199.66
2022-12-01T18:37:36.969Z,100205.53
2022-12-01T18:40:09.439Z,100204.09
2022-12-01T18:42:39.182Z,100212.72
2022-12-01T18:45:09.532Z,100213.53
2022-12-01T18:47:40.047Z,100216.84
2022-12-01T18:50:10.833Z,100209.44
2022-12-01T18:52:40.442Z,100198.81
2022-12-01T18:55:10.262Z,100206.84
2022-12-01T18:57:40.741Z,100217.31
2022-12-01T19:00:12.635Z,100215.69
2022-12-01T19:02:42.392Z,100209.53
2022-12-01T19:05:12.121Z,100209.56
2022-12-01T19:07:42.679Z,100214.84
2022-12-01T19:10:13.323Z,100215.75
2022-12-01T19:12:43.000Z,100218.16
2022-12-01T19:15:13.839Z,100215.53
2022-12-01T19:17:43.572Z,100217.38
2022-12-01T19:20:13.651Z,100219.47
2022-12-01T19:22:44.213Z,100222.16
2022-12-01T19:25:14.086Z,100220.38
2022-12-01T19:27:43.791Z,100223.00
2022-12-01T19:30:13.980Z,100228.38
2022-12-01T19:32:43.626Z,100225.81
2022-12-01T19:35:13.287Z,100223.97
2022-12-01T19:37:42.981Z,100222.25
2022-12-01T19:40:14.341Z,100223.16
2022-12-01T19:42:43.987Z,100223.84
2022-12-01T19:45:13.603Z,100220.31
2022-12-01T19:47:44.719Z,100225.41
2022-12-01T19:50:15.336Z,100221.69
2022-12-01T19:52:45.800Z,100226.88
2022-12-01T19:55:15.498Z,100226.03
2022-12-01T19:57:50.269Z,100232.56
2022-12-01T20:00:23.570Z,100225.81
2022-12-01T20:02:54.418Z,100219.09
2022-12-01T20:05:24.875Z,100222.72
2022-12-01T20:07:55.413Z,100224.31
2022-12-01T20:10:25.139Z,100225.81
2022-12-01T20:12:53.008Z,100233.28
2022-12-01T20:15:23.483Z,100232.50
2022-12-01T20:17:54.082Z,100231.69
2022-12-01T20:20:23.688Z,100230.81
2022-12-01T20:22:54.153Z,100229.13
2022-12-01T20:25:24.809Z,100236.22
2022-12-01T20:27:55.301Z,100235.31
2022-12-01T20:30:25.858Z,100239.88
2022-12-01T20:32:56.951Z,100245.03
2022-12-01T20:35:27.474Z,100238.03
2022-12-01T20:37:57.136Z,100239.06
2022-12-01T20:40:26.848Z,100245.16
2022-12-01T20:42:56.453Z,100234.56
2022-12-01T20:45:26.374Z,100240.66
2022-12-01T20:47:56.028Z,100240.59
2022-12-01T20:50:25.907Z,100243.25
2022-12-01T20:52:56.485Z,100236.38
2022-12-01T20:55:27.193Z,100242.03
2022-12-01T20:57:56.842Z,100246.56
2022-12-01T21:00:27.254Z,100254.28
2022-12-01T21:02:57.919Z,100249.78
2022-12-01T21:05:28.442Z,100253.16
2022-12-01T21:07:58.273Z,100247.09
2022-12-01T21:10:28.547Z,100250.88
2022-12-01T21:13:32.868Z,100250.78
2022-12-01T21:16:12.370Z,100257.97
2022-12-01T21:19:06.612Z,100260.47
2022-12-01T21:21:41.768Z,100261.41
2022-12-01T21:24:33.557Z,100256.81
2022-12-01T21:27:16.706Z,100262.81
2022-12-01T21:29:49.891Z,100255.97
2022-12-01T21:32:31.561Z,100260.03
2022-12-01T21:35:20.817Z,100251.97
2022-12-01T21:38:01.893Z,100257.16
2022-12-01T21:40:31.711Z,100259.00
2022-12-01T21:43:22.718Z,100259.06
2022-12-01T21:46:17.514Z,100255.63
2022-12-01T21:48:47.221Z,100257.34
2022-12-01T21:51:24.965Z,100264.34
2022-12-01T21:53:56.665Z,100262.53
2022-12-01T21:56:31.783Z,100260.91
2022-12-01T21:59:32.007Z,100263.41
2022-12-01T22:02:03.528Z,100266.28
2022-12-01T22:04:34.093Z,100268.06
2022-12-01T22:07:05.319Z,100277.63
2022-12-01T22:09:37.137Z,100281.22
2022-12-01T22:12:32.108Z,100278.53
2022-12-01T22:15:30.649Z,100271.53
2022-12-01T22:17:59.227Z,100273.31
2022-12-01T22:20:29.932Z,100265.44
2022-12-01T22:22:59.586Z,100270.41
2022-12-01T22:25:30.039Z,100267.91
2022-12-01T22:28:00.259Z,100261.94
2022-12-01T22:30:29.847Z,100260.09
2022-12-01T22:33:23.217Z,100262.66
2022-12-01T22:35:53.894Z,100264.31
2022-12-01T22:38:38.407Z,100270.47
2022-12-01T22:41:18.944Z,100262.56
2022-12-01T22:43:59.598Z,100251.13
2022-12-01T22:46:41.506Z,100260.69
2022-12-01T22:49:22.407Z,100253.75
2022-12-01T22:52:25.807Z,100257.75
2022-12-01T22:54:54.501Z,100247.25
2022-12-01T22:57:33.309Z,100256.19
2022-12-01T23:00:24.171Z,100252.81
2022-12-01T23:02:56.790Z,100248.59
2022-12-01T23:05:31.688Z,100240.81
2022-12-01T23:08:08.327Z,100239.69
2022-12-01T23:10:40.366Z,100241.44
2022-12-01T23:13:23.394Z,100228.91
2022-12-01T23:15:54.293Z,100236.03
2022-12-01T23:18:33.328Z,100234.31
2022-12-01T23:21:03.901Z,100246.56
2022-12-01T23:23:37.645Z,100243.25
2022-12-01T23:26:09.354Z,100245.94
2022-12-01T23:28:39.374Z,100243.97
2022-12-01T23:31:10.295Z,100248.56
2022-12-01T23:33:39.839Z,100235.78
2022-12-01T23:36:29.157Z,100238.63
2022-12-01T23:39:04.922Z,100240.47
2022-12-01T23:41:47.754Z,100249.16
2022-12-01T23:44:45.546Z,100249.34
2022-12-01T23:47:25.421Z,100252.78
2022-12-01T23:50:03.030Z,100255.41
2022-12-01T23:52:37.618Z,100249.22
2022-12-01T23:55:29.037Z,100260.84
2022-12-01T23:58:01.905Z,100256.63
